Time;durP1;ratioP1;P1;durP2;ratioP2;P2;SDS_P1;SDS_P2;PMS_P1;PMS_P2;Temp;Humidity;BMP_temperature;BMP_pressure;BME280_temperature;BME280_humidity;BME280_pressure;Samples;Min_cycle;Max_cycle;Signal;HPM_P1;HPM_P2
2023/05/24 00:02:18;;;;;;;;;;;9.60;99.90;;;;;;5133506;27;20022;-65
2023/05/24 00:04:44;;;;;;;;;;;9.60;99.90;;;;;;5133383;27;19930;-63
2023/05/24 00:07:10;;;;;;;;;;;9.60;99.90;;;;;;5133642;27;19976;-62
2023/05/24 00:09:35;;;;;;;;;;;9.60;99.90;;;;;;5133188;27;20329;-62
2023/05/24 00:12:01;;;;;;;;;;;9.60;99.90;;;;;;5133413;27;20026;-62
2023/05/24 00:14:27;;;;;;;;;;;9.60;99.90;;;;;;5132898;27;20304;-63
2023/05/24 00:16:53;;;;;;;;;;;9.60;99.90;;;;;;5133354;27;20011;-62
2023/05/24 00:19:21;;;;;;;;;;;9.60;99.90;;;;;;5133431;27;20369;-62
2023/05/24 00:21:47;;;;;;;;;;;9.60;99.90;;;;;;5133201;27;19924;-63
2023/05/24 00:24:13;;;;;;;;;;;9.70;99.90;;;;;;5133294;27;19927;-62
2023/05/24 00:26:39;;;;;;;;;;;9.70;99.90;;;;;;5131551;27;19930;-62
2023/05/24 00:29:04;;;;;;;;;;;9.70;99.90;;;;;;5133180;27;19923;-62
2023/05/24 00:31:30;;;;;;;;;;;9.70;99.90;;;;;;5132801;27;19927;-63
2023/05/24 00:33:56;;;;;;;;;;;9.70;99.90;;;;;;5115057;28;19924;-63
2023/05/24 00:36:21;;;;;;;;;;;9.70;99.90;;;;;;5131838;27;19927;-62
2023/05/24 00:38:47;;;;;;;;;;;9.70;99.90;;;;;;5132408;27;20432;-63
2023/05/24 00:41:13;;;;;;;;;;;9.70;99.90;;;;;;5132068;27;20004;-63
2023/05/24 00:43:38;;;;;;;;;;;9.70;99.90;;;;;;5132616;27;19927;-63
2023/05/24 00:46:33;;;;;;;;;;;9.70;99.90;;;;;;5132988;27;19976;-63
2023/05/24 00:48:59;;;;;;;;;;;9.70;99.90;;;;;;5118188;27;19923;-62
2023/05/24 00:51:26;;;;;;;;;;;9.70;99.90;;;;;;5132843;27;20331;-64
2023/05/24 00:53:53;;;;;;;;;;;9.70;99.90;;;;;;5132821;27;19927;-62
2023/05/24 00:56:18;;;;;;;;;;;9.70;99.90;;;;;;5132647;27;20344;-62
2023/05/24 00:58:44;;;;;;;;;;;9.70;99.90;;;;;;5132893;28;19923;-63
2023/05/24 01:01:10;;;;;;;;;;;9.70;99.90;;;;;;5132594;27;20343;-63
2023/05/24 01:03:36;;;;;;;;;;;9.70;99.90;;;;;;5135678;27;20010;-63
2023/05/24 01:06:02;;;;;;;;;;;9.70;99.90;;;;;;5137022;27;20045;-62
2023/05/24 01:08:28;;;;;;;;;;;9.70;99.90;;;;;;5135890;27;19923;-64
2023/05/24 01:10:58;;;;;;;;;;;9.60;99.90;;;;;;5136608;27;19923;-62
2023/05/24 01:13:31;;;;;;;;;;;9.60;99.90;;;;;;5136418;27;20360;-62
2023/05/24 01:16:04;;;;;;;;;;;9.60;99.90;;;;;;5136538;27;20377;-62
2023/05/24 01:18:33;;;;;;;;;;;9.50;99.90;;;;;;5136865;27;19988;-64
2023/05/24 01:21:11;;;;;;;;;;;9.50;99.90;;;;;;5136781;27;20265;-63
2023/05/24 01:23:45;;;;;;;;;;;9.50;99.90;;;;;;5136461;27;19923;-62
2023/05/24 01:26:38;;;;;;;;;;;9.50;99.90;;;;;;5136659;27;19968;-62
2023/05/24 01:29:03;;;;;;;;;;;9.60;99.90;;;;;;5119926;27;20034;-63
2023/05/24 01:31:29;;;;;;;;;;;9.60;99.90;;;;;;5136461;27;20431;-62
2023/05/24 01:33:55;;;;;;;;;;;9.60;99.90;;;;;;5136010;27;20017;-62
2023/05/24 01:36:20;;;;;;;;;;;9.60;99.90;;;;;;5134801;27;20411;-63
2023/05/24 01:38:47;;;;;;;;;;;9.60;99.90;;;;;;5134838;27;19983;-62
2023/05/24 01:41:21;;;;;;;;;;;9.60;99.90;;;;;;5135095;27;19931;-62
2023/05/24 01:43:53;;;;;;;;;;;9.60;99.90;;;;;;5117812;27;19923;-62
2023/05/24 01:46:27;;;;;;;;;;;9.60;99.90;;;;;;5136313;27;19923;-63
2023/05/24 01:49:12;;;;;;;;;;;9.60;99.90;;;;;;5134968;27;19920;-62
2023/05/24 01:51:40;;;;;;;;;;;9.60;99.90;;;;;;5135568;27;19923;-62
2023/05/24 01:54:06;;;;;;;;;;;9.60;99.90;;;;;;5135880;27;19966;-62
2023/05/24 01:56:33;;;;;;;;;;;9.60;99.90;;;;;;5136471;27;20339;-63
2023/05/24 01:58:59;;;;;;;;;;;9.60;99.90;;;;;;5135820;27;19947;-62
2023/05/24 02:01:25;;;;;;;;;;;9.60;99.90;;;;;;5135838;27;19941;-63
2023/05/24 02:03:51;;;;;;;;;;;9.50;99.90;;;;;;5134365;27;19924;-62
2023/05/24 02:06:16;;;;;;;;;;;9.50;99.90;;;;;;5135882;27;20019;-63
2023/05/24 02:08:42;;;;;;;;;;;9.50;99.90;;;;;;5135506;27;19927;-63
2023/05/24 02:11:08;;;;;;;;;;;9.50;99.90;;;;;;5134181;27;19968;-62
2023/05/24 02:13:33;;;;;;;;;;;9.50;99.90;;;;;;5134354;27;19974;-62
2023/05/24 02:15:59;;;;;;;;;;;9.50;99.90;;;;;;5135441;27;19977;-63
2023/05/24 02:18:24;;;;;;;;;;;9.40;99.90;;;;;;5136072;27;19968;-62
2023/05/24 02:20:50;;;;;;;;;;;9.50;99.90;;;;;;5134286;27;20347;-62
2023/05/24 02:23:15;;;;;;;;;;;9.50;99.90;;;;;;5135538;27;19928;-62
2023/05/24 02:25:41;;;;;;;;;;;9.50;99.90;;;;;;5134000;27;19930;-63
2023/05/24 02:28:07;;;;;;;;;;;9.50;99.90;;;;;;5134461;27;20018;-62
2023/05/24 02:30:32;;;;;;;;;;;9.60;99.90;;;;;;5135454;27;19978;-62
2023/05/24 02:32:59;;;;;;;;;;;9.60;99.90;;;;;;5134883;27;19936;-63
2023/05/24 02:35:25;;;;;;;;;;;9.60;99.90;;;;;;5134915;27;20345;-62
2023/05/24 02:37:50;;;;;;;;;;;9.60;99.90;;;;;;5133486;27;19930;-62
2023/05/24 02:40:16;;;;;;;;;;;9.60;99.90;;;;;;5134363;27;19923;-62
2023/05/24 02:42:41;;;;;;;;;;;9.60;99.90;;;;;;5135031;27;20429;-63
2023/05/24 02:45:07;;;;;;;;;;;9.70;99.90;;;;;;5116806;27;19946;-64
2023/05/24 02:47:33;;;;;;;;;;;9.70;99.90;;;;;;5134900;27;19924;-63
2023/05/24 02:49:58;;;;;;;;;;;9.70;99.90;;;;;;5134587;27;19931;-62
2023/05/24 02:52:24;;;;;;;;;;;9.80;99.90;;;;;;5134854;27;20014;-62
2023/05/24 02:54:49;;;;;;;;;;;9.80;99.90;;;;;;5133697;27;19946;-62
2023/05/24 02:57:15;;;;;;;;;;;9.80;99.90;;;;;;5133784;27;20022;-64
2023/05/24 02:59:42;;;;;;;;;;;9.80;99.90;;;;;;5133772;27;20436;-64
2023/05/24 03:02:07;;;;;;;;;;;9.80;99.90;;;;;;5168108;27;19943;-63
2023/05/24 03:04:33;;;;;;;;;;;9.90;99.90;;;;;;5134471;27;19924;-62
2023/05/24 03:06:58;;;;;;;;;;;10.00;99.90;;;;;;5132916;27;19932;-62
2023/05/24 03:09:24;;;;;;;;;;;10.00;99.90;;;;;;5134649;27;19923;-63
2023/05/24 03:11:51;;;;;;;;;;;10.00;99.90;;;;;;5134130;27;19930;-63
2023/05/24 03:14:19;;;;;;;;;;;10.00;99.90;;;;;;5134756;27;19923;-62
2023/05/24 03:16:45;;;;;;;;;;;10.00;99.90;;;;;;5133913;27;20293;-64
2023/05/24 03:19:10;;;;;;;;;;;10.00;99.90;;;;;;5134380;27;19930;-62
2023/05/24 03:21:36;;;;;;;;;;;10.00;99.90;;;;;;5133314;27;19923;-62
2023/05/24 03:24:01;;;;;;;;;;;9.90;99.90;;;;;;5133325;27;19975;-62
2023/05/24 03:26:27;;;;;;;;;;;9.90;99.90;;;;;;5134129;27;20275;-62
2023/05/24 03:28:53;;;;;;;;;;;9.90;99.90;;;;;;5133219;27;19923;-63
2023/05/24 03:31:19;;;;;;;;;;;9.90;99.90;;;;;;5133561;27;20068;-63
2023/05/24 03:33:45;;;;;;;;;;;9.90;99.90;;;;;;5133919;27;19924;-63
2023/05/24 03:36:10;;;;;;;;;;;9.90;99.90;;;;;;5132900;27;19931;-63
2023/05/24 03:38:36;;;;;;;;;;;9.90;99.90;;;;;;5134152;27;20353;-62
2023/05/24 03:41:02;;;;;;;;;;;9.90;99.90;;;;;;5132461;27;19939;-63
2023/05/24 03:43:28;;;;;;;;;;;9.90;99.90;;;;;;5132706;27;19930;-63
2023/05/24 03:45:53;;;;;;;;;;;9.90;99.90;;;;;;5132275;27;19923;-63
2023/05/24 03:48:22;;;;;;;;;;;9.90;99.90;;;;;;5134019;27;19977;-62
2023/05/24 03:50:47;;;;;;;;;;;10.00;99.90;;;;;;5132595;27;19999;-63
2023/05/24 03:53:13;;;;;;;;;;;10.00;99.90;;;;;;5133330;27;20026;-62
2023/05/24 03:55:39;;;;;;;;;;;10.10;99.90;;;;;;5132890;27;19929;-61
2023/05/24 03:58:04;;;;;;;;;;;10.00;99.90;;;;;;5132476;27;20372;-64
2023/05/24 04:00:30;;;;;;;;;;;10.10;99.90;;;;;;5133680;27;19938;-62
2023/05/24 04:02:56;;;;;;;;;;;10.10;99.90;;;;;;5133422;27;19923;-62
2023/05/24 04:05:25;;;;;;;;;;;10.10;99.90;;;;;;5133345;27;19924;-63
2023/05/24 04:07:51;;;;;;;;;;;10.10;99.90;;;;;;5115211;27;20010;-65
2023/05/24 04:10:17;;;;;;;;;;;10.20;99.90;;;;;;5133320;27;20412;-63
2023/05/24 04:12:43;;;;;;;;;;;10.20;99.90;;;;;;5133561;27;20376;-62
2023/05/24 04:15:13;;;;;;;;;;;10.20;99.90;;;;;;5132985;27;19969;-62
2023/05/24 04:17:39;;;;;;;;;;;10.20;99.90;;;;;;5133386;27;19975;-62
2023/05/24 04:20:05;;;;;;;;;;;10.30;99.90;;;;;;5131724;27;20407;-62
2023/05/24 04:22:30;;;;;;;;;;;10.30;99.90;;;;;;5133352;27;19937;-63
2023/05/24 04:24:56;;;;;;;;;;;10.30;99.90;;;;;;5132931;27;20276;-63
2023/05/24 04:27:24;;;;;;;;;;;10.30;99.90;;;;;;5132326;27;19938;-63
2023/05/24 04:29:51;;;;;;;;;;;10.40;99.90;;;;;;5133210;27;19931;-62
2023/05/24 04:32:18;;;;;;;;;;;10.40;99.90;;;;;;5132649;27;20257;-62
2023/05/24 04:34:45;;;;;;;;;;;10.40;99.90;;;;;;5115073;27;19952;-62
2023/05/24 04:37:12;;;;;;;;;;;10.40;99.90;;;;;;5131831;27;20349;-62
2023/05/24 04:39:38;;;;;;;;;;;10.40;99.90;;;;;;5131609;27;19923;-62
2023/05/24 04:42:04;;;;;;;;;;;10.40;99.90;;;;;;5131483;27;19923;-62
2023/05/24 04:44:29;;;;;;;;;;;10.40;99.90;;;;;;5133110;27;19924;-62
2023/05/24 04:46:56;;;;;;;;;;;10.50;99.90;;;;;;5132984;27;19923;-64
2023/05/24 04:49:22;;;;;;;;;;;10.50;99.90;;;;;;5133004;27;19978;-63
2023/05/24 04:51:47;;;;;;;;;;;10.50;99.90;;;;;;5132946;28;19978;-62
2023/05/24 04:54:13;;;;;;;;;;;10.50;99.90;;;;;;5114208;28;19923;-64
2023/05/24 04:56:39;;;;;;;;;;;10.50;99.90;;;;;;5132553;27;20120;-64
2023/05/24 04:59:05;;;;;;;;;;;10.50;99.90;;;;;;5131857;28;19973;-63
2023/05/24 05:01:31;;;;;;;;;;;10.50;99.90;;;;;;5133119;27;19923;-63
2023/05/24 05:03:57;;;;;;;;;;;10.50;99.90;;;;;;5131679;28;20104;-63
2023/05/24 05:06:23;;;;;;;;;;;10.50;99.90;;;;;;5132762;27;19927;-63
2023/05/24 05:08:49;;;;;;;;;;;10.50;99.90;;;;;;5131731;28;20322;-63
2023/05/24 05:11:15;;;;;;;;;;;10.60;99.90;;;;;;5132410;27;19923;-63
2023/05/24 05:13:40;;;;;;;;;;;10.60;99.90;;;;;;5132397;28;19930;-63
2023/05/24 05:16:06;;;;;;;;;;;10.70;99.90;;;;;;5132701;28;19923;-63
2023/05/24 05:18:32;;;;;;;;;;;10.80;99.90;;;;;;5132943;28;19989;-63
2023/05/24 05:20:58;;;;;;;;;;;10.90;99.90;;;;;;5131722;28;19961;-63
2023/05/24 05:23:23;;;;;;;;;;;10.90;99.90;;;;;;5132322;27;19927;-63
2023/05/24 05:25:49;;;;;;;;;;;11.00;99.90;;;;;;5132769;28;20019;-63
2023/05/24 05:28:15;;;;;;;;;;;11.00;99.90;;;;;;5132308;27;19923;-63
2023/05/24 05:30:41;;;;;;;;;;;11.10;99.90;;;;;;5132764;27;19923;-63
2023/05/24 05:33:06;;;;;;;;;;;11.20;99.90;;;;;;5132098;27;19930;-63
2023/05/24 05:35:32;;;;;;;;;;;11.20;99.90;;;;;;5132281;28;20027;-63
2023/05/24 05:37:58;;;;;;;;;;;11.30;99.90;;;;;;5131557;28;19923;-63
2023/05/24 05:40:23;;;;;;;;;;;11.30;99.90;;;;;;5132423;27;19931;-63
2023/05/24 05:42:49;;;;;;;;;;;11.30;99.90;;;;;;5131287;28;19923;-63
2023/05/24 05:45:15;;;;;;;;;;;11.40;99.90;;;;;;5131403;28;19945;-64
2023/05/24 05:47:41;;;;;;;;;;;11.40;99.90;;;;;;5132246;27;19928;-63
2023/05/24 05:50:07;;;;;;;;;;;11.40;99.90;;;;;;5134878;27;20395;-63
2023/05/24 05:52:33;;;;;;;;;;;11.40;99.90;;;;;;5136443;27;19924;-63
2023/05/24 05:54:59;;;;;;;;;;;11.50;99.90;;;;;;5136351;27;20061;-63
2023/05/24 05:57:25;;;;;;;;;;;11.50;99.90;;;;;;5135961;27;20542;-63
2023/05/24 05:59:50;;;;;;;;;;;11.50;99.90;;;;;;5135156;27;19928;-63
2023/05/24 06:02:17;;;;;;;;;;;11.60;99.90;;;;;;5136027;27;19931;-63
2023/05/24 06:04:44;;;;;;;;;;;11.70;99.90;;;;;;5135187;27;19927;-64
2023/05/24 06:07:09;;;;;;;;;;;11.80;99.90;;;;;;5134854;27;19938;-63
2023/05/24 06:09:35;;;;;;;;;;;11.90;99.90;;;;;;5135981;27;19923;-62
2023/05/24 06:12:00;;;;;;;;;;;12.00;99.90;;;;;;5135922;27;19924;-62
2023/05/24 06:14:26;;;;;;;;;;;12.10;99.90;;;;;;5134336;27;20106;-63
2023/05/24 06:16:53;;;;;;;;;;;12.00;99.90;;;;;;5135731;27;19934;-63
2023/05/24 06:19:19;;;;;;;;;;;12.00;99.90;;;;;;5135740;27;20296;-62
2023/05/24 06:21:46;;;;;;;;;;;12.00;99.90;;;;;;5136021;27;19976;-64
2023/05/24 06:24:13;;;;;;;;;;;12.00;99.90;;;;;;5134401;27;19934;-64
2023/05/24 06:26:39;;;;;;;;;;;12.10;99.90;;;;;;5135253;27;19954;-63
2023/05/24 06:29:05;;;;;;;;;;;12.20;99.90;;;;;;5135725;27;19923;-63
2023/05/24 06:31:31;;;;;;;;;;;12.20;99.90;;;;;;5135238;27;19995;-63
2023/05/24 06:33:57;;;;;;;;;;;12.20;99.90;;;;;;5117257;27;19931;-63
2023/05/24 06:36:23;;;;;;;;;;;12.30;99.90;;;;;;5134824;27;19923;-64
2023/05/24 06:38:48;;;;;;;;;;;12.40;99.90;;;;;;5117163;27;19970;-63
2023/05/24 06:41:14;;;;;;;;;;;12.60;99.90;;;;;;5134972;27;20036;-63
2023/05/24 06:43:39;;;;;;;;;;;12.70;99.90;;;;;;5135373;27;19923;-63
2023/05/24 06:46:05;;;;;;;;;;;12.90;99.90;;;;;;5134384;27;19929;-63
2023/05/24 06:48:31;;;;;;;;;;;12.90;99.90;;;;;;5134957;27;20470;-64
2023/05/24 06:50:57;;;;;;;;;;;12.90;99.90;;;;;;5117362;27;19924;-63
2023/05/24 06:53:22;;;;;;;;;;;12.80;99.90;;;;;;5133802;27;19927;-64
2023/05/24 06:55:48;;;;;;;;;;;12.70;99.90;;;;;;5135228;27;20434;-62
2023/05/24 06:58:13;;;;;;;;;;;12.60;99.90;;;;;;5133929;27;19923;-64
2023/05/24 07:00:44;;;;;;;;;;;12.60;99.90;;;;;;5133485;27;20018;-64
2023/05/24 07:03:11;;;;;;;;;;;12.70;99.90;;;;;;5134243;27;20013;-64
2023/05/24 07:05:37;;;;;;;;;;;12.90;99.90;;;;;;5134703;27;19930;-63
2023/05/24 07:08:03;;;;;;;;;;;13.10;99.90;;;;;;5134822;27;19923;-62
2023/05/24 07:10:29;;;;;;;;;;;14.10;99.90;;;;;;5133667;27;19924;-64
2023/05/24 07:12:54;;;;;;;;;;;15.00;99.90;;;;;;5135000;27;19924;-63
2023/05/24 07:15:20;;;;;;;;;;;15.10;99.90;;;;;;5116547;27;19946;-63
2023/05/24 07:17:47;;;;;;;;;;;15.00;99.90;;;;;;5133414;27;19924;-61
2023/05/24 07:20:12;;;;;;;;;;;15.00;99.90;;;;;;5168199;27;20384;-62
2023/05/24 07:22:38;;;;;;;;;;;14.80;99.90;;;;;;5134499;27;19931;-62
2023/05/24 07:25:04;;;;;;;;;;;15.20;99.90;;;;;;5134747;27;20352;-62
2023/05/24 07:27:30;;;;;;;;;;;15.30;99.90;;;;;;5133082;27;19923;-62
2023/05/24 07:29:56;;;;;;;;;;;15.10;99.90;;;;;;5134403;27;20010;-63
2023/05/24 07:32:21;;;;;;;;;;;14.80;99.90;;;;;;5132916;27;19964;-63
2023/05/24 07:34:47;;;;;;;;;;;14.50;99.90;;;;;;5134430;27;19924;-63
2023/05/24 07:37:13;;;;;;;;;;;14.20;99.90;;;;;;5134366;27;19924;-63
2023/05/24 07:39:38;;;;;;;;;;;14.00;99.90;;;;;;5134050;27;19967;-63
2023/05/24 07:42:05;;;;;;;;;;;14.00;99.90;;;;;;5134372;27;19981;-63
2023/05/24 07:44:31;;;;;;;;;;;13.70;99.90;;;;;;5132988;27;19973;-63
2023/05/24 07:46:56;;;;;;;;;;;13.70;99.90;;;;;;5133334;27;19927;-63
2023/05/24 07:49:22;;;;;;;;;;;13.70;99.90;;;;;;5132823;27;20014;-64
2023/05/24 07:51:48;;;;;;;;;;;13.70;99.90;;;;;;5134039;27;19932;-63
2023/05/24 07:54:14;;;;;;;;;;;14.30;99.90;;;;;;5133839;27;19928;-64
2023/05/24 07:56:40;;;;;;;;;;;15.20;99.90;;;;;;5133693;27;19920;-64
2023/05/24 07:59:06;;;;;;;;;;;15.60;99.90;;;;;;5132896;27;19946;-64
2023/05/24 08:01:35;;;;;;;;;;;16.20;99.90;;;;;;5133591;27;20300;-64
2023/05/24 08:04:04;;;;;;;;;;;16.90;99.90;;;;;;5133774;27;19923;-65
2023/05/24 08:06:33;;;;;;;;;;;17.00;99.90;;;;;;5133113;27;20385;-65
2023/05/24 08:09:00;;;;;;;;;;;16.60;99.90;;;;;;5133900;27;19928;-65
2023/05/24 08:11:26;;;;;;;;;;;16.60;99.90;;;;;;5132063;27;19924;-64
2023/05/24 08:13:51;;;;;;;;;;;17.40;99.90;;;;;;5132472;27;19935;-65
2023/05/24 08:16:17;;;;;;;;;;;17.70;99.90;;;;;;5133613;27;19985;-62
2023/05/24 08:18:43;;;;;;;;;;;17.30;99.90;;;;;;5166898;27;20002;-62
2023/05/24 08:21:08;;;;;;;;;;;17.10;99.90;;;;;;5132601;27;19924;-62
2023/05/24 08:23:35;;;;;;;;;;;17.20;99.90;;;;;;5132951;27;19923;-62
2023/05/24 08:26:00;;;;;;;;;;;17.20;99.90;;;;;;5133544;27;19931;-61
2023/05/24 08:28:26;;;;;;;;;;;17.00;99.90;;;;;;5133101;27;19923;-62
2023/05/24 08:30:52;;;;;;;;;;;16.50;99.90;;;;;;5133529;27;19927;-62
2023/05/24 08:33:18;;;;;;;;;;;16.10;99.90;;;;;;5133403;27;20081;-62
2023/05/24 08:35:43;;;;;;;;;;;15.80;99.90;;;;;;5132905;27;20220;-61
2023/05/24 08:38:09;;;;;;;;;;;15.50;99.90;;;;;;5133163;27;19924;-63
2023/05/24 08:40:35;;;;;;;;;;;15.50;99.90;;;;;;5132624;27;19935;-63
2023/05/24 08:43:01;;;;;;;;;;;15.70;99.90;;;;;;5133251;27;19976;-62
2023/05/24 08:45:30;;;;;;;;;;;15.80;99.90;;;;;;5132983;27;20072;-63
2023/05/24 08:47:57;;;;;;;;;;;15.80;99.90;;;;;;5133358;27;19924;-63
2023/05/24 08:50:22;;;;;;;;;;;15.80;99.90;;;;;;5133143;27;19933;-65
2023/05/24 08:52:48;;;;;;;;;;;15.60;99.90;;;;;;5132687;27;19998;-62
2023/05/24 08:55:14;;;;;;;;;;;15.40;99.90;;;;;;5131916;28;19931;-62
2023/05/24 08:57:40;;;;;;;;;;;15.30;99.90;;;;;;5132743;27;20330;-63
2023/05/24 09:00:08;;;;;;;;;;;15.20;99.90;;;;;;5133139;27;20330;-62
2023/05/24 09:02:34;;;;;;;;;;;15.00;99.90;;;;;;5132853;27;19976;-62
2023/05/24 09:05:00;;;;;;;;;;;15.00;99.90;;;;;;5133121;27;19924;-62
2023/05/24 09:07:26;;;;;;;;;;;14.90;99.90;;;;;;5133101;28;19976;-62
2023/05/24 09:10:18;;;;;;;;;;;14.90;99.90;;;;;;5131766;28;20061;-62
2023/05/24 09:12:46;;;;;;;;;;;15.00;99.90;;;;;;5130384;27;20015;-61
2023/05/24 09:15:12;;;;;;;;;;;14.80;99.90;;;;;;5131572;28;20411;-61
2023/05/24 09:17:39;;;;;;;;;;;14.70;99.90;;;;;;5132079;27;19931;-62
2023/05/24 09:20:08;;;;;;;;;;;14.60;99.90;;;;;;5132674;27;20063;-63
2023/05/24 09:22:36;;;;;;;;;;;14.50;99.90;;;;;;5133516;27;19927;-63
2023/05/24 09:25:03;;;;;;;;;;;14.50;99.90;;;;;;5136937;27;20324;-63
2023/05/24 09:27:30;;;;;;;;;;;14.50;99.90;;;;;;5136879;27;19923;-62
2023/05/24 09:29:56;;;;;;;;;;;14.50;99.90;;;;;;5136676;27;19924;-63
2023/05/24 09:32:24;;;;;;;;;;;14.40;99.90;;;;;;5136748;27;20398;-63
2023/05/24 09:34:51;;;;;;;;;;;14.40;99.90;;;;;;5136560;27;19923;-62
2023/05/24 09:37:18;;;;;;;;;;;14.30;99.90;;;;;;5136332;27;19937;-63
2023/05/24 09:39:44;;;;;;;;;;;14.30;99.90;;;;;;5136480;27;19923;-62
2023/05/24 09:42:19;;;;;;;;;;;14.60;99.90;;;;;;5136562;27;19923;-63
2023/05/24 09:44:48;;;;;;;;;;;14.40;99.90;;;;;;5135420;27;19924;-63
2023/05/24 09:47:14;;;;;;;;;;;14.50;99.90;;;;;;5135223;27;20289;-63
2023/05/24 09:49:40;;;;;;;;;;;14.60;99.90;;;;;;5135031;27;19923;-63
2023/05/24 09:52:06;;;;;;;;;;;14.60;99.90;;;;;;5135297;27;19952;-62
2023/05/24 09:54:32;;;;;;;;;;;14.90;99.90;;;;;;5118343;27;19928;-62
2023/05/24 09:57:03;;;;;;;;;;;15.00;99.90;;;;;;5134874;27;19930;-62
2023/05/24 09:59:31;;;;;;;;;;;15.10;99.90;;;;;;5136397;27;19923;-62
2023/05/24 10:02:09;;;;;;;;;;;15.30;99.90;;;;;;5135022;27;20251;-62
2023/05/24 10:04:34;;;;;;;;;;;15.50;99.90;;;;;;5136393;27;19930;-62
2023/05/24 10:07:01;;;;;;;;;;;15.80;99.90;;;;;;5135780;27;19924;-62
2023/05/24 10:09:32;;;;;;;;;;;15.80;99.90;;;;;;5136129;27;19924;-61
2023/05/24 10:12:07;;;;;;;;;;;15.90;99.90;;;;;;5135629;27;20022;-60
2023/05/24 10:14:35;;;;;;;;;;;15.90;99.90;;;;;;5136106;27;19923;-61
2023/05/24 10:17:04;;;;;;;;;;;15.90;99.90;;;;;;5135678;27;19923;-61
2023/05/24 10:19:33;;;;;;;;;;;15.90;99.90;;;;;;5135814;27;19974;-61
2023/05/24 10:22:00;;;;;;;;;;;16.10;99.90;;;;;;5135226;27;20108;-61
2023/05/24 10:24:28;;;;;;;;;;;16.20;99.90;;;;;;5152236;27;20372;-62
2023/05/24 10:26:54;;;;;;;;;;;16.20;99.90;;;;;;5135167;27;19923;-66
2023/05/24 10:29:26;;;;;;;;;;;16.10;99.90;;;;;;5134532;27;19923;-63
2023/05/24 10:31:53;;;;;;;;;;;15.90;99.90;;;;;;5135361;27;19927;-63
2023/05/24 10:34:19;;;;;;;;;;;15.70;99.90;;;;;;5133147;27;20026;-63
2023/05/24 10:36:44;;;;;;;;;;;15.50;99.90;;;;;;5135220;27;19946;-63
2023/05/24 10:39:11;;;;;;;;;;;15.30;99.90;;;;;;5135555;27;19923;-63
2023/05/24 10:41:43;;;;;;;;;;;15.10;99.90;;;;;;5134525;27;19923;-62
2023/05/24 10:44:09;;;;;;;;;;;15.10;99.90;;;;;;5135466;27;19923;-63
2023/05/24 10:46:35;;;;;;;;;;;14.90;99.90;;;;;;5135570;27;19924;-62
2023/05/24 10:49:01;;;;;;;;;;;14.90;99.90;;;;;;5135149;27;19923;-62
2023/05/24 10:51:38;;;;;;;;;;;15.00;99.90;;;;;;5135272;27;19924;-62
2023/05/24 10:54:11;;;;;;;;;;;15.10;99.90;;;;;;5133901;27;19920;-62
2023/05/24 10:56:41;;;;;;;;;;;15.20;99.90;;;;;;5134100;27;20448;-63
2023/05/24 10:59:07;;;;;;;;;;;15.20;99.90;;;;;;5134818;27;19924;-64
2023/05/24 11:01:33;;;;;;;;;;;15.30;99.90;;;;;;5133816;27;20360;-64
2023/05/24 11:04:15;;;;;;;;;;;15.30;99.90;;;;;;5134645;27;19923;-64
2023/05/24 11:06:49;;;;;;;;;;;15.40;99.90;;;;;;5135160;27;19927;-64
2023/05/24 11:09:21;;;;;;;;;;;15.30;99.90;;;;;;5135012;27;19923;-63
2023/05/24 11:11:48;;;;;;;;;;;15.40;99.90;;;;;;5134003;27;20372;-62
2023/05/24 11:14:18;;;;;;;;;;;15.40;99.90;;;;;;5134977;27;19923;-63
2023/05/24 11:16:45;;;;;;;;;;;15.30;99.90;;;;;;5134953;27;20018;-62
2023/05/24 11:19:12;;;;;;;;;;;15.30;99.90;;;;;;5133062;27;19923;-63
2023/05/24 11:21:38;;;;;;;;;;;15.40;99.90;;;;;;5133633;27;19930;-63
2023/05/24 11:24:04;;;;;;;;;;;15.50;99.90;;;;;;5133951;27;19939;-64
2023/05/24 11:26:30;;;;;;;;;;;15.50;99.90;;;;;;5134644;27;19993;-62
2023/05/24 11:28:56;;;;;;;;;;;15.70;99.90;;;;;;5134120;27;19924;-62
2023/05/24 11:31:25;;;;;;;;;;;15.90;99.90;;;;;;5134541;27;20022;-66
2023/05/24 11:33:51;;;;;;;;;;;16.00;99.90;;;;;;5134131;27;20002;-63
2023/05/24 11:36:18;;;;;;;;;;;16.00;99.90;;;;;;5115819;27;19923;-63
2023/05/24 11:38:45;;;;;;;;;;;16.00;99.90;;;;;;5134615;27;20307;-64
2023/05/24 11:41:10;;;;;;;;;;;16.00;99.90;;;;;;5133794;27;19924;-63
2023/05/24 11:43:36;;;;;;;;;;;15.90;99.90;;;;;;5133981;27;20006;-63
2023/05/24 11:46:02;;;;;;;;;;;15.80;99.90;;;;;;5133679;27;19935;-65
2023/05/24 11:48:28;;;;;;;;;;;15.70;99.90;;;;;;5134270;27;19928;-64
2023/05/24 11:50:54;;;;;;;;;;;15.60;99.90;;;;;;5133747;27;19923;-65
2023/05/24 11:53:20;;;;;;;;;;;15.50;99.90;;;;;;5132774;27;19930;-62
2023/05/24 11:55:47;;;;;;;;;;;15.50;99.90;;;;;;5132980;27;20340;-62
2023/05/24 11:58:16;;;;;;;;;;;15.50;99.90;;;;;;5133660;27;19976;-61
2023/05/24 12:00:42;;;;;;;;;;;15.40;99.90;;;;;;5134034;27;19924;-61
2023/05/24 12:03:08;;;;;;;;;;;15.30;99.90;;;;;;5133536;27;20411;-62
2023/05/24 12:05:35;;;;;;;;;;;15.40;99.90;;;;;;5132773;27;20299;-62
2023/05/24 12:08:11;;;;;;;;;;;15.40;99.90;;;;;;5133517;27;19935;-62
2023/05/24 12:10:38;;;;;;;;;;;15.50;99.90;;;;;;5132378;27;19923;-61
2023/05/24 12:13:04;;;;;;;;;;;15.50;99.90;;;;;;5133344;27;20078;-61
2023/05/24 12:15:30;;;;;;;;;;;15.50;99.90;;;;;;5133588;27;19931;-61
2023/05/24 12:17:56;;;;;;;;;;;15.60;99.90;;;;;;5133483;27;19923;-61
2023/05/24 12:20:22;;;;;;;;;;;15.60;99.90;;;;;;5133967;27;20120;-61
2023/05/24 12:22:51;;;;;;;;;;;15.50;99.90;;;;;;5133629;27;20039;-61
2023/05/24 12:25:20;;;;;;;;;;;15.40;99.90;;;;;;5133119;27;19931;-63
2023/05/24 12:27:47;;;;;;;;;;;15.30;99.90;;;;;;5133736;27;19969;-62
2023/05/24 12:30:20;;;;;;;;;;;15.30;99.90;;;;;;5133224;27;19927;-62
2023/05/24 12:32:49;;;;;;;;;;;15.40;99.90;;;;;;5115355;27;19924;-63
2023/05/24 12:35:18;;;;;;;;;;;15.30;99.90;;;;;;5132118;27;20149;-63
2023/05/24 12:37:44;;;;;;;;;;;15.20;99.90;;;;;;5133725;27;20340;-63
2023/05/24 12:40:19;;;;;;;;;;;15.30;99.90;;;;;;5133145;27;19924;-63
2023/05/24 12:42:48;;;;;;;;;;;15.30;99.90;;;;;;5132469;27;19968;-62
2023/05/24 12:45:14;;;;;;;;;;;15.40;99.90;;;;;;5149402;27;19946;-63
2023/05/24 12:47:40;;;;;;;;;;;15.50;99.90;;;;;;5132255;27;20365;-62
2023/05/24 12:50:06;;;;;;;;;;;15.60;99.90;;;;;;5133118;27;19924;-63
2023/05/24 12:52:32;;;;;;;;;;;15.80;99.90;;;;;;5133147;27;19927;-63
2023/05/24 12:54:58;;;;;;;;;;;15.90;99.90;;;;;;5131736;28;20010;-63
2023/05/24 12:57:23;;;;;;;;;;;16.10;99.90;;;;;;5131315;27;19924;-62
2023/05/24 12:59:49;;;;;;;;;;;16.10;99.90;;;;;;5133327;28;19923;-62
2023/05/24 13:02:15;;;;;;;;;;;16.20;99.90;;;;;;5132942;27;20018;-63
2023/05/24 13:04:40;;;;;;;;;;;16.20;99.90;;;;;;5133195;27;19971;-62
2023/05/24 13:07:06;;;;;;;;;;;16.20;99.90;;;;;;5132895;28;19923;-62
2023/05/24 13:09:33;;;;;;;;;;;16.10;99.90;;;;;;5133249;27;20001;-62
2023/05/24 13:11:58;;;;;;;;;;;16.10;99.90;;;;;;5132970;27;19929;-63
2023/05/24 13:14:24;;;;;;;;;;;16.00;99.90;;;;;;5132750;28;19923;-62
2023/05/24 13:16:49;;;;;;;;;;;15.90;99.90;;;;;;5132154;28;19923;-62
2023/05/24 13:19:16;;;;;;;;;;;15.80;99.90;;;;;;5132797;27;20299;-62
2023/05/24 13:21:41;;;;;;;;;;;15.80;99.90;;;;;;5133115;27;20395;-62
2023/05/24 13:24:07;;;;;;;;;;;15.90;99.90;;;;;;5132326;28;19924;-61
2023/05/24 13:26:36;;;;;;;;;;;15.80;99.90;;;;;;5132950;27;19924;-62
2023/05/24 13:29:03;;;;;;;;;;;15.70;99.90;;;;;;5131709;28;19927;-63
2023/05/24 13:31:29;;;;;;;;;;;15.70;99.90;;;;;;5131421;28;20292;-62
2023/05/24 13:33:54;;;;;;;;;;;15.70;99.90;;;;;;5133119;27;19924;-62
2023/05/24 13:36:20;;;;;;;;;;;15.80;99.90;;;;;;5114296;28;19931;-61
2023/05/24 13:38:46;;;;;;;;;;;15.80;99.90;;;;;;5133038;27;19924;-61
2023/05/24 13:41:12;;;;;;;;;;;15.90;99.90;;;;;;5131732;28;20419;-61
2023/05/24 13:43:37;;;;;;;;;;;15.90;99.90;;;;;;5131960;28;19923;-62
2023/05/24 13:46:03;;;;;;;;;;;15.90;99.90;;;;;;5133017;27;19924;-61
2023/05/24 13:48:29;;;;;;;;;;;16.00;99.90;;;;;;5132910;27;19923;-61
2023/05/24 13:50:54;;;;;;;;;;;15.90;99.90;;;;;;5132663;28;19939;-61
2023/05/24 13:53:21;;;;;;;;;;;15.90;99.90;;;;;;5132525;28;19980;-61
2023/05/24 13:55:47;;;;;;;;;;;15.80;99.90;;;;;;5132752;27;19937;-61
2023/05/24 13:58:13;;;;;;;;;;;15.90;99.90;;;;;;5132410;28;20018;-61
2023/05/24 14:00:38;;;;;;;;;;;15.90;99.90;;;;;;5132808;27;20027;-61
2023/05/24 14:03:05;;;;;;;;;;;16.10;99.90;;;;;;5132691;28;19976;-61
2023/05/24 14:05:31;;;;;;;;;;;16.10;99.90;;;;;;5131339;28;19923;-62
2023/05/24 14:07:59;;;;;;;;;;;16.20;99.90;;;;;;5132717;27;19924;-61
2023/05/24 14:10:25;;;;;;;;;;;16.30;99.90;;;;;;5136147;27;19965;-61
2023/05/24 14:12:50;;;;;;;;;;;16.30;99.90;;;;;;5136542;27;19975;-62
2023/05/24 14:15:16;;;;;;;;;;;16.30;99.90;;;;;;5134965;27;19923;-63
2023/05/24 14:17:42;;;;;;;;;;;16.30;99.90;;;;;;5136271;27;19928;-62
2023/05/24 14:20:08;;;;;;;;;;;16.30;99.90;;;;;;5135926;27;20072;-62